Página principal
METAR-TAF:

METAR-TAF

Aeroportos :

Aeroporto Internacional de Florianópolis

Florianópolis, Santa Catarina, Brasil

latitude: 27-40S, longitude: 048-33W, altura: 5 m

Observação actual do tempo

O boletim foi feito há 1 hora e 5 minutos, às 18:00 UTC
Vento 9 kt de norte
Temperatura 32°C
Humidade 59%
Pressão 1012 hPa
Visibilidade 10 km ou mais
Nuvens dispersasa uma altura de 3000 ft

METAR: SBFL 221800Z 01009KT 9999 SCT030 32/23 Q1012

Hora: 16:05 (19:05 UTC)

Previsão

O boletim foi feito há 3 horas e 5 minutos, às 16:00 UTC
Previsão válida de 22 às 18 UTC a 23 às 18 UTC
Vento 7 kt de norte
Visibilidade 10 km ou mais
Poucas nuvensa uma altura de 3000 ft
Probabilidade 40%
de 23 às 02 UTC a 23 às 08 UTC
Nuvens dispersasa uma altura de 1500 ft

TAF: SBFL 221600Z 2218/2318 36007KT 9999 FEW030 TN23/2308Z TX31/2317Z PROB40 2302/2308 SCT015 RMK PCX

Observações e previsões do tempo de mais de 4000 aeroportos (mensagens METAR e TAF).

As estações disponíveis são os pontos amarelos e vermelhos sobre o mapa.

Mova o rato sobre o mapa para ver o nome da estação.

Depois clique no ponto para visualizar as observações e previsões meteorológicas.

Para alterar o mapa : clique nos botões verdes com uma cruz preta para aumentar o zoom; no botão verde com uma pitada de zoom; ou nas setas verdes para mapas adjacentes.


METAR-TAF: